Time;durP1;ratioP1;P1;durP2;ratioP2;P2;SDS_P1;SDS_P2;PMS_P1;PMS_P2;Temp;Humidity;BMP_temperature;BMP_pressure;BME280_temperature;BME280_humidity;BME280_pressure;Samples;Min_cycle;Max_cycle;Signal;HPM_P1;HPM_P2
2021/06/21 00:01:44;;;;;;;16.77;7.83;;;;;;;;;;5020865;28;20424;-71
2021/06/21 00:04:10;;;;;;;24.47;8.20;;;;;;;;;;5016493;28;20399;-70
2021/06/21 00:06:36;;;;;;;13.70;7.77;;;;;;;;;;5016562;28;20764;-70
2021/06/21 00:09:03;;;;;;;18.13;8.03;;;;;;;;;;5034380;28;20472;-70
2021/06/21 00:11:30;;;;;;;19.23;7.70;;;;;;;;;;5036306;28;20398;-70
2021/06/21 00:13:56;;;;;;;18.60;8.80;;;;;;;;;;5016950;28;20455;-70
2021/06/21 00:16:22;;;;;;;22.03;8.63;;;;;;;;;;5016083;28;20455;-70
2021/06/21 00:18:48;;;;;;;22.00;7.40;;;;;;;;;;5014975;28;20469;-70
2021/06/21 00:21:14;;;;;;;20.00;7.63;;;;;;;;;;5015924;28;20847;-70
2021/06/21 00:23:41;;;;;;;17.30;7.37;;;;;;;;;;5014594;28;20433;-70
2021/06/21 00:26:07;;;;;;;18.73;8.10;;;;;;;;;;5016226;28;20820;-70
2021/06/21 00:28:33;;;;;;;19.00;7.93;;;;;;;;;;5027998;28;20541;-70
2021/06/21 00:30:59;;;;;;;18.70;7.93;;;;;;;;;;5034526;28;20403;-69
2021/06/21 00:33:25;;;;;;;18.30;7.40;;;;;;;;;;5033604;28;20838;-70
2021/06/21 00:35:51;;;;;;;18.70;7.47;;;;;;;;;;5035344;28;20496;-70
2021/06/21 00:38:17;;;;;;;19.70;8.20;;;;;;;;;;5033300;28;20445;-70
2021/06/21 00:40:43;;;;;;;18.80;6.77;;;;;;;;;;5033277;28;20451;-70
2021/06/21 00:43:09;;;;;;;18.17;7.23;;;;;;;;;;5023517;28;20502;-70
2021/06/21 00:45:35;;;;;;;20.87;7.00;;;;;;;;;;5015358;28;20499;-70
2021/06/21 00:48:01;;;;;;;15.30;8.03;;;;;;;;;;5014107;28;20569;-70
2021/06/21 00:50:28;;;;;;;16.43;7.47;;;;;;;;;;5015627;28;20400;-70
2021/06/21 00:52:56;;;;;;;13.20;7.17;;;;;;;;;;5014308;28;20428;-70
2021/06/21 00:55:22;;;;;;;14.97;7.40;;;;;;;;;;5015629;28;20547;-70
2021/06/21 00:57:49;;;;;;;26.97;7.87;;;;;;;;;;5014192;28;20514;-70
2021/06/21 01:00:19;;;;;;;20.70;6.80;;;;;;;;;;5015530;28;20435;-70
2021/06/21 01:02:45;;;;;;;12.27;6.87;;;;;;;;;;5014569;28;20446;-70
2021/06/21 01:05:13;;;;;;;12.37;7.17;;;;;;;;;;5015415;28;20443;-70
2021/06/21 01:07:39;;;;;;;14.17;6.20;;;;;;;;;;5014258;28;20431;-70
2021/06/21 01:10:07;;;;;;;15.70;7.00;;;;;;;;;;5015204;28;20806;-70
2021/06/21 01:12:48;;;;;;;14.83;6.47;;;;;;;;;;5014233;28;20932;-70
2021/06/21 01:15:15;;;;;;;16.80;6.57;;;;;;;;;;5024276;28;20465;-70
2021/06/21 01:18:00;;;;;;;11.97;7.13;;;;;;;;;;5032922;28;20480;-69
2021/06/21 01:20:35;;;;;;;23.97;6.43;;;;;;;;;;5034734;28;20433;-69
2021/06/21 01:23:20;;;;;;;19.20;7.57;;;;;;;;;;5026861;28;20422;-70
2021/06/21 01:25:46;;;;;;;18.93;6.27;;;;;;;;;;5014832;28;20892;-70
2021/06/21 01:28:21;;;;;;;21.43;6.47;;;;;;;;;;5012273;28;20447;-70
2021/06/21 01:31:02;;;;;;;12.00;6.50;;;;;;;;;;5030083;28;20396;-70
2021/06/21 01:33:29;;;;;;;14.70;6.13;;;;;;;;;;5022974;28;20427;-70
2021/06/21 01:35:59;;;;;;;17.47;6.67;;;;;;;;;;5030663;28;20942;-70
2021/06/21 01:38:28;;;;;;;20.83;6.67;;;;;;;;;;5013560;28;20440;-70
2021/06/21 01:40:55;;;;;;;16.03;6.10;;;;;;;;;;5012499;28;20447;-70
2021/06/21 01:43:24;;;;;;;21.77;6.67;;;;;;;;;;5021933;28;20843;-69
2021/06/21 01:45:50;;;;;;;14.13;6.40;;;;;;;;;;5034277;28;20419;-69
2021/06/21 01:48:16;;;;;;;17.43;6.90;;;;;;;;;;5020661;28;20515;-70
2021/06/21 01:50:43;;;;;;;22.70;6.80;;;;;;;;;;4994598;28;20432;-70
2021/06/21 01:53:17;;;;;;;16.47;7.27;;;;;;;;;;4996752;28;21004;-70
2021/06/21 01:55:49;;;;;;;15.37;7.03;;;;;;;;;;5014499;28;20470;-70
2021/06/21 01:58:17;;;;;;;18.03;6.97;;;;;;;;;;5015037;28;20501;-70
2021/06/21 02:00:43;;;;;;;17.93;7.07;;;;;;;;;;5033025;28;20409;-70
2021/06/21 02:03:10;;;;;;;17.37;6.63;;;;;;;;;;5018804;28;20843;-71
2021/06/21 02:05:36;;;;;;;13.70;6.00;;;;;;;;;;5034200;28;20414;-70
2021/06/21 02:08:03;;;;;;;24.30;6.87;;;;;;;;;;5032627;28;20934;-71
2021/06/21 02:10:32;;;;;;;12.30;6.70;;;;;;;;;;5033333;28;20430;-70
2021/06/21 02:12:58;;;;;;;24.13;6.87;;;;;;;;;;5032454;28;20415;-70
2021/06/21 02:15:25;;;;;;;18.43;7.30;;;;;;;;;;5031867;28;20470;-70
2021/06/21 02:17:51;;;;;;;14.30;6.17;;;;;;;;;;5033731;28;20505;-70
2021/06/21 02:20:18;;;;;;;18.83;7.00;;;;;;;;;;5031879;28;20437;-70
2021/06/21 02:22:45;;;;;;;19.53;5.73;;;;;;;;;;5033612;28;20892;-70
2021/06/21 02:25:12;;;;;;;21.57;5.90;;;;;;;;;;5017036;28;20799;-70
2021/06/21 02:27:39;;;;;;;13.47;5.40;;;;;;;;;;5033436;28;20414;-70
2021/06/21 02:30:06;;;;;;;17.50;6.80;;;;;;;;;;5015691;28;20462;-70
2021/06/21 02:32:32;;;;;;;14.80;7.67;;;;;;;;;;5014111;28;20881;-70
2021/06/21 02:34:58;;;;;;;12.97;6.53;;;;;;;;;;5027044;28;20468;-70
2021/06/21 02:37:24;;;;;;;12.10;4.90;;;;;;;;;;5033494;28;20445;-70
2021/06/21 02:39:50;;;;;;;15.60;6.67;;;;;;;;;;5018632;28;20428;-70
2021/06/21 02:42:17;;;;;;;18.03;7.43;;;;;;;;;;5013766;28;20399;-70
2021/06/21 02:44:43;;;;;;;13.10;5.40;;;;;;;;;;5027840;28;20438;-70
2021/06/21 02:47:09;;;;;;;13.07;5.37;;;;;;;;;;5013701;28;20404;-71
2021/06/21 02:49:35;;;;;;;11.30;5.40;;;;;;;;;;5012630;28;20802;-70
2021/06/21 02:52:04;;;;;;;13.47;5.13;;;;;;;;;;5013028;28;20469;-70
2021/06/21 02:54:49;;;;;;;14.57;6.20;;;;;;;;;;5012878;28;20515;-70
2021/06/21 02:57:41;;;;;;;16.33;6.13;;;;;;;;;;5012411;28;20431;-70
2021/06/21 03:00:08;;;;;;;24.23;6.40;;;;;;;;;;5008005;28;20442;-69
2021/06/21 03:02:34;;;;;;;11.17;5.73;;;;;;;;;;5013596;28;20770;-70
2021/06/21 03:05:02;;;;;;;9.17;4.70;;;;;;;;;;5020874;28;20444;-70
2021/06/21 03:07:28;;;;;;;11.43;6.40;;;;;;;;;;5033031;28;20906;-70
2021/06/21 03:09:55;;;;;;;16.63;5.23;;;;;;;;;;5031066;28;20842;-69
2021/06/21 03:12:24;;;;;;;19.63;4.63;;;;;;;;;;5032859;28;20769;-70
2021/06/21 03:14:50;;;;;;;9.17;4.50;;;;;;;;;;5027111;28;20423;-69
2021/06/21 03:17:17;;;;;;;12.40;5.00;;;;;;;;;;5032952;28;20460;-70
2021/06/21 03:19:44;;;;;;;10.17;4.40;;;;;;;;;;5021716;28;20579;-69
2021/06/21 03:22:11;;;;;;;12.00;4.80;;;;;;;;;;5004374;28;20408;-69
2021/06/21 03:24:37;;;;;;;11.00;5.30;;;;;;;;;;5012798;28;20508;-69
2021/06/21 03:27:04;;;;;;;9.73;6.10;;;;;;;;;;5013186;28;20924;-70
2021/06/21 03:29:30;;;;;;;7.80;3.77;;;;;;;;;;5011726;28;20495;-69
2021/06/21 03:31:56;;;;;;;13.30;4.80;;;;;;;;;;5013157;28;20757;-70
2021/06/21 03:34:23;;;;;;;24.63;6.10;;;;;;;;;;5010668;28;20451;-70
2021/06/21 03:36:51;;;;;;;14.40;4.87;;;;;;;;;;5029425;28;20963;-70
2021/06/21 03:39:17;;;;;;;9.70;4.30;;;;;;;;;;5032914;28;20422;-70
2021/06/21 03:41:43;;;;;;;10.10;4.47;;;;;;;;;;5030777;28;20455;-70
2021/06/21 03:44:09;;;;;;;10.67;4.63;;;;;;;;;;5032703;28;20796;-70
2021/06/21 03:46:35;;;;;;;11.13;4.60;;;;;;;;;;5030752;28;20435;-69
2021/06/21 03:49:01;;;;;;;10.60;3.83;;;;;;;;;;5032509;28;20521;-70
2021/06/21 03:51:27;;;;;;;11.93;4.07;;;;;;;;;;5030694;28;20430;-69
2021/06/21 03:53:54;;;;;;;7.93;3.40;;;;;;;;;;5027215;28;20443;-69
2021/06/21 03:56:20;;;;;;;14.23;5.00;;;;;;;;;;5024436;28;20497;-70
2021/06/21 03:58:48;;;;;;;9.43;4.27;;;;;;;;;;5032788;28;20450;-70
2021/06/21 04:01:14;;;;;;;8.13;3.93;;;;;;;;;;5030906;28;20438;-69
2021/06/21 04:03:40;;;;;;;12.80;4.37;;;;;;;;;;5017869;28;20499;-70
2021/06/21 04:06:06;;;;;;;11.47;6.70;;;;;;;;;;5012345;28;20439;-70
2021/06/21 04:08:32;;;;;;;6.50;3.20;;;;;;;;;;5016658;28;20439;-70
2021/06/21 04:10:58;;;;;;;15.70;6.83;;;;;;;;;;5024634;28;20434;-70
2021/06/21 04:13:26;;;;;;;17.10;4.03;;;;;;;;;;5036168;28;20765;-70
2021/06/21 04:15:53;;;;;;;14.23;3.97;;;;;;;;;;5034077;28;20462;-70
2021/06/21 04:18:19;;;;;;;12.77;4.00;;;;;;;;;;5035852;28;20414;-70
2021/06/21 04:20:45;;;;;;;8.57;4.27;;;;;;;;;;5033928;28;20426;-70
2021/06/21 04:23:12;;;;;;;7.93;3.03;;;;;;;;;;5036362;28;20395;-70
2021/06/21 04:25:38;;;;;;;10.73;3.63;;;;;;;;;;5030296;28;20558;-70
2021/06/21 04:28:05;;;;;;;7.90;3.47;;;;;;;;;;5017662;28;20478;-70
2021/06/21 04:30:31;;;;;;;12.30;3.23;;;;;;;;;;5034168;28;20784;-69
2021/06/21 04:32:57;;;;;;;12.40;3.20;;;;;;;;;;5035762;28;20838;-70
2021/06/21 04:35:24;;;;;;;6.73;3.30;;;;;;;;;;5033684;28;20459;-70
2021/06/21 04:37:50;;;;;;;7.00;3.63;;;;;;;;;;5035636;28;20448;-70
2021/06/21 04:40:19;;;;;;;15.00;3.77;;;;;;;;;;5034675;28;20406;-69
2021/06/21 04:42:46;;;;;;;7.33;4.30;;;;;;;;;;5014887;28;20416;-70
2021/06/21 04:45:12;;;;;;;15.47;4.13;;;;;;;;;;5025151;28;20403;-70
2021/06/21 04:47:38;;;;;;;10.47;3.70;;;;;;;;;;5033492;28;20542;-70
2021/06/21 04:50:08;;;;;;;8.53;4.10;;;;;;;;;;5017353;28;20456;-70
2021/06/21 04:52:37;;;;;;;9.43;3.13;;;;;;;;;;5030788;28;20422;-70
2021/06/21 04:55:04;;;;;;;9.50;3.33;;;;;;;;;;5034531;28;20442;-71
2021/06/21 04:57:31;;;;;;;7.73;3.13;;;;;;;;;;5029623;28;20422;-71
2021/06/21 04:59:57;;;;;;;12.70;4.03;;;;;;;;;;5029329;28;20869;-70
2021/06/21 05:02:24;;;;;;;17.53;4.83;;;;;;;;;;5014709;28;20447;-70
2021/06/21 05:04:50;;;;;;;10.73;3.80;;;;;;;;;;5015480;28;20438;-70
2021/06/21 05:07:16;;;;;;;11.97;3.77;;;;;;;;;;5027090;28;20435;-71
2021/06/21 05:09:42;;;;;;;7.60;3.00;;;;;;;;;;5035292;28;20434;-71
2021/06/21 05:12:09;;;;;;;8.80;3.90;;;;;;;;;;5020327;28;20428;-70
2021/06/21 05:14:36;;;;;;;9.60;2.93;;;;;;;;;;5015147;28;20444;-70
2021/06/21 05:17:03;;;;;;;15.87;3.83;;;;;;;;;;5023804;28;20463;-70
2021/06/21 05:19:29;;;;;;;8.23;4.20;;;;;;;;;;5035148;28;20423;-70
2021/06/21 05:21:55;;;;;;;19.37;3.90;;;;;;;;;;5032791;28;20422;-70
2021/06/21 05:24:21;;;;;;;11.83;4.20;;;;;;;;;;5034897;28;20738;-70
2021/06/21 05:26:47;;;;;;;12.40;4.50;;;;;;;;;;5032788;28;20505;-70
2021/06/21 05:29:13;;;;;;;11.03;3.43;;;;;;;;;;5034558;28;20418;-70
2021/06/21 05:31:40;;;;;;;10.90;2.70;;;;;;;;;;5032865;28;20923;-70
2021/06/21 05:34:06;;;;;;;9.80;2.90;;;;;;;;;;5034995;28;20406;-70
2021/06/21 05:36:33;;;;;;;9.43;3.03;;;;;;;;;;5033012;28;20458;-70
2021/06/21 05:38:59;;;;;;;10.60;3.30;;;;;;;;;;5034530;28;20485;-70
2021/06/21 05:41:25;;;;;;;8.07;2.90;;;;;;;;;;5026832;28;20507;-69
2021/06/21 05:43:51;;;;;;;6.57;2.40;;;;;;;;;;5032613;28;20870;-69
2021/06/21 05:46:17;;;;;;;8.80;3.03;;;;;;;;;;5032912;28;20772;-70
2021/06/21 05:48:43;;;;;;;10.97;3.47;;;;;;;;;;5034142;28;20453;-71
2021/06/21 05:51:09;;;;;;;9.50;3.40;;;;;;;;;;5032280;28;21331;-70
2021/06/21 05:53:35;;;;;;;10.13;2.73;;;;;;;;;;5034474;28;20495;-70
2021/06/21 05:56:01;;;;;;;8.40;2.30;;;;;;;;;;5032451;28;20541;-70
2021/06/21 05:58:27;;;;;;;12.83;2.93;;;;;;;;;;5014620;28;20455;-70
2021/06/21 06:00:53;;;;;;;14.30;3.20;;;;;;;;;;5014535;28;20457;-70
2021/06/21 06:03:19;;;;;;;15.37;2.90;;;;;;;;;;5033259;28;20500;-70
2021/06/21 06:05:45;;;;;;;7.00;2.50;;;;;;;;;;5034148;28;20413;-70
2021/06/21 06:08:11;;;;;;;14.90;3.10;;;;;;;;;;5032476;28;20812;-70
2021/06/21 06:10:37;;;;;;;10.27;3.23;;;;;;;;;;5034482;28;20469;-70
2021/06/21 06:13:04;;;;;;;12.00;3.20;;;;;;;;;;5012357;28;20462;-70
2021/06/21 06:15:30;;;;;;;10.73;3.10;;;;;;;;;;5013601;28;20822;-65
2021/06/21 06:17:56;;;;;;;6.80;2.00;;;;;;;;;;5021303;28;20981;-71
2021/06/21 06:20:22;;;;;;;6.87;2.47;;;;;;;;;;5017395;28;20897;-71
2021/06/21 06:22:49;;;;;;;5.63;2.57;;;;;;;;;;5014856;28;20427;-70
2021/06/21 06:25:16;;;;;;;11.73;2.70;;;;;;;;;;5013838;28;20416;-70
2021/06/21 06:27:42;;;;;;;6.57;2.47;;;;;;;;;;5019048;28;20510;-70
2021/06/21 06:30:11;;;;;;;6.70;2.30;;;;;;;;;;5034204;28;20402;-70
2021/06/21 06:32:38;;;;;;;10.80;2.50;;;;;;;;;;5012703;28;20423;-70
2021/06/21 06:35:04;;;;;;;5.80;2.10;;;;;;;;;;5012068;28;20427;-69
2021/06/21 06:37:31;;;;;;;9.73;2.63;;;;;;;;;;5013755;28;20939;-66
2021/06/21 06:39:57;;;;;;;9.03;2.43;;;;;;;;;;5014396;28;20486;-66
2021/06/21 06:42:23;;;;;;;10.00;2.50;;;;;;;;;;5015285;28;20433;-67
2021/06/21 06:44:49;;;;;;;13.00;3.20;;;;;;;;;;5013541;28;20420;-78
2021/06/21 06:47:15;;;;;;;8.80;2.20;;;;;;;;;;5013146;28;20429;-67
2021/06/21 06:49:41;;;;;;;8.47;2.63;;;;;;;;;;5013547;28;20431;-68
2021/06/21 06:52:08;;;;;;;7.73;2.80;;;;;;;;;;5013617;28;20426;-69
2021/06/21 06:54:46;;;;;;;10.70;3.20;;;;;;;;;;5017420;28;20407;-69
2021/06/21 06:57:12;;;;;;;8.87;1.97;;;;;;;;;;5014395;28;20415;-69
2021/06/21 06:59:39;;;;;;;4.17;2.27;;;;;;;;;;5033938;28;20406;-70
2021/06/21 07:02:06;;;;;;;9.10;2.90;;;;;;;;;;5030977;28;20462;-70
2021/06/21 07:04:33;;;;;;;4.30;1.80;;;;;;;;;;5031101;28;20398;-69
2021/06/21 07:06:59;;;;;;;7.50;2.10;;;;;;;;;;4999622;28;20870;-69
2021/06/21 07:09:27;;;;;;;8.80;2.20;;;;;;;;;;5003979;28;20526;-69
2021/06/21 07:11:53;;;;;;;5.77;2.00;;;;;;;;;;5004370;28;20420;-69
2021/06/21 07:14:20;;;;;;;12.03;3.20;;;;;;;;;;5006487;28;20440;-68
2021/06/21 07:16:47;;;;;;;5.57;2.00;;;;;;;;;;5010728;28;20785;-69
2021/06/21 07:19:14;;;;;;;4.80;2.40;;;;;;;;;;5012815;28;20462;-69
2021/06/21 07:21:40;;;;;;;10.30;3.07;;;;;;;;;;5011579;28;20541;-69
2021/06/21 07:24:07;;;;;;;4.87;1.80;;;;;;;;;;5012918;28;20498;-69
2021/06/21 07:26:33;;;;;;;5.87;2.40;;;;;;;;;;5012474;28;20419;-70
2021/06/21 07:28:59;;;;;;;6.40;1.70;;;;;;;;;;5008924;28;20474;-69
2021/06/21 07:31:25;;;;;;;7.83;2.63;;;;;;;;;;5006354;28;20432;-69
2021/06/21 07:33:51;;;;;;;10.40;2.10;;;;;;;;;;5011390;28;20549;-69
2021/06/21 07:36:17;;;;;;;6.30;2.00;;;;;;;;;;5012426;28;20466;-69
2021/06/21 07:38:43;;;;;;;9.60;2.20;;;;;;;;;;5019209;28;20530;-70
2021/06/21 07:41:10;;;;;;;7.43;2.00;;;;;;;;;;5010966;28;20569;-69
2021/06/21 07:43:36;;;;;;;7.57;2.30;;;;;;;;;;5017018;28;20423;-70
2021/06/21 07:46:03;;;;;;;8.90;1.67;;;;;;;;;;5013372;28;20439;-70
2021/06/21 07:48:29;;;;;;;7.63;2.37;;;;;;;;;;5013824;28;20474;-70
2021/06/21 07:50:55;;;;;;;6.43;1.83;;;;;;;;;;5014687;28;20455;-71
2021/06/21 07:53:21;;;;;;;5.23;1.60;;;;;;;;;;5018713;28;20820;-70
2021/06/21 07:55:47;;;;;;;10.57;1.90;;;;;;;;;;5005637;28;20518;-69
2021/06/21 07:58:13;;;;;;;9.20;1.87;;;;;;;;;;5008604;28;20443;-69
2021/06/21 08:00:40;;;;;;;6.43;1.97;;;;;;;;;;5011647;28;20440;-69
2021/06/21 08:03:09;;;;;;;7.63;2.30;;;;;;;;;;5014525;28;20423;-70
2021/06/21 08:05:35;;;;;;;8.73;2.10;;;;;;;;;;5015359;28;20410;-70
2021/06/21 08:08:01;;;;;;;5.60;1.80;;;;;;;;;;5019192;28;20496;-71
2021/06/21 08:10:27;;;;;;;8.97;2.10;;;;;;;;;;5013802;28;20447;-71
2021/06/21 08:12:54;;;;;;;9.17;1.97;;;;;;;;;;5008752;28;20462;-70
2021/06/21 08:15:20;;;;;;;10.40;2.00;;;;;;;;;;5015663;28;20469;-70
2021/06/21 08:17:46;;;;;;;5.97;1.57;;;;;;;;;;5015919;28;21240;-70
2021/06/21 08:20:12;;;;;;;6.23;1.63;;;;;;;;;;5014960;28;20415;-71
2021/06/21 08:22:39;;;;;;;7.97;1.77;;;;;;;;;;5010009;28;20503;-71
2021/06/21 08:25:07;;;;;;;7.87;2.10;;;;;;;;;;5007770;28;20477;-70
2021/06/21 08:27:33;;;;;;;11.07;2.17;;;;;;;;;;5014559;28;20538;-70
2021/06/21 08:29:59;;;;;;;8.00;1.83;;;;;;;;;;5021570;28;20518;-70
2021/06/21 08:32:25;;;;;;;9.27;1.60;;;;;;;;;;5012371;28;20802;-70
2021/06/21 08:34:51;;;;;;;7.90;1.97;;;;;;;;;;5011861;28;20437;-70
2021/06/21 08:37:20;;;;;;;4.67;1.73;;;;;;;;;;5015079;28;20923;-70
2021/06/21 08:39:46;;;;;;;5.33;1.97;;;;;;;;;;5026337;28;20446;-70
2021/06/21 08:42:12;;;;;;;5.50;1.63;;;;;;;;;;5014203;28;20403;-70
2021/06/21 08:44:41;;;;;;;9.40;1.57;;;;;;;;;;5012702;28;20531;-70
2021/06/21 08:47:07;;;;;;;3.97;1.70;;;;;;;;;;5010772;28;20456;-70
2021/06/21 08:49:38;;;;;;;5.73;1.70;;;;;;;;;;5014984;28;20459;-70
2021/06/21 08:52:04;;;;;;;6.63;1.47;;;;;;;;;;5012976;28;20415;-70
2021/06/21 08:54:30;;;;;;;3.53;1.37;;;;;;;;;;5009310;28;20513;-70
2021/06/21 08:57:00;;;;;;;4.40;1.73;;;;;;;;;;5016238;28;21162;-70
2021/06/21 08:59:26;;;;;;;8.20;2.03;;;;;;;;;;5013857;28;20444;-69
2021/06/21 09:01:52;;;;;;;9.10;2.00;;;;;;;;;;5014221;28;20777;-69
2021/06/21 09:04:19;;;;;;;5.63;1.83;;;;;;;;;;5014886;28;20495;-69
2021/06/21 09:06:45;;;;;;;6.63;1.70;;;;;;;;;;5013841;28;20466;-70
2021/06/21 09:09:11;;;;;;;6.73;1.70;;;;;;;;;;5013557;28;20476;-70
2021/06/21 09:11:46;;;;;;;7.70;2.13;;;;;;;;;;5013513;28;20922;-71
2021/06/21 09:14:24;;;;;;;7.50;1.67;;;;;;;;;;5010644;28;20426;-70
2021/06/21 09:16:51;;;;;;;7.30;2.40;;;;;;;;;;5009721;28;20451;-70
2021/06/21 09:19:18;;;;;;;7.10;1.97;;;;;;;;;;5012929;28;20442;-70
2021/06/21 09:21:44;;;;;;;7.30;2.43;;;;;;;;;;5012742;28;20484;-70
2021/06/21 09:24:16;;;;;;;11.47;2.10;;;;;;;;;;5010640;28;20428;-70
2021/06/21 09:26:43;;;;;;;5.30;3.03;;;;;;;;;;5012096;28;20582;-69
2021/06/21 09:29:10;;;;;;;8.90;2.07;;;;;;;;;;5012293;28;20448;-70
2021/06/21 09:31:54;;;;;;;6.97;2.10;;;;;;;;;;5011835;28;20473;-70
2021/06/21 09:34:22;;;;;;;6.00;1.90;;;;;;;;;;5000964;28;20455;-70
2021/06/21 09:36:48;;;;;;;4.87;1.50;;;;;;;;;;5012706;28;20509;-70
2021/06/21 09:39:16;;;;;;;9.03;2.30;;;;;;;;;;5011668;28;20505;-70
2021/06/21 09:41:42;;;;;;;9.23;2.67;;;;;;;;;;5012530;28;20424;-70
2021/06/21 09:44:08;;;;;;;5.60;1.87;;;;;;;;;;5012373;28;20896;-70
2021/06/21 09:46:34;;;;;;;4.83;2.00;;;;;;;;;;5013498;28;20424;-70
2021/06/21 09:49:00;;;;;;;8.13;1.80;;;;;;;;;;5012320;28;20884;-70
2021/06/21 09:51:29;;;;;;;5.00;1.83;;;;;;;;;;5014494;28;20764;-70
2021/06/21 09:54:06;;;;;;;7.03;2.20;;;;;;;;;;5014357;28;20518;-70
2021/06/21 09:56:32;;;;;;;9.50;1.70;;;;;;;;;;5011811;28;20542;-70
2021/06/21 09:58:58;;;;;;;6.03;2.13;;;;;;;;;;5008835;28;20486;-70
2021/06/21 10:01:29;;;;;;;5.40;2.10;;;;;;;;;;5012051;28;20805;-70
2021/06/21 10:03:55;;;;;;;5.30;1.70;;;;;;;;;;5013994;28;20416;-70
2021/06/21 10:06:21;;;;;;;6.83;2.37;;;;;;;;;;5012728;28;20427;-70
2021/06/21 10:08:48;;;;;;;7.40;2.03;;;;;;;;;;5011533;28;20436;-70
2021/06/21 10:11:31;;;;;;;4.70;1.80;;;;;;;;;;5007090;28;20780;-70
2021/06/21 10:14:17;;;;;;;6.00;1.93;;;;;;;;;;5006907;28;20435;-70
2021/06/21 10:16:44;;;;;;;3.70;1.63;;;;;;;;;;5012876;28;20489;-70
2021/06/21 10:19:12;;;;;;;7.30;1.87;;;;;;;;;;5014344;28;20449;-70
2021/06/21 10:21:39;;;;;;;8.60;2.90;;;;;;;;;;5015668;28;20420;-69
2021/06/21 10:24:06;;;;;;;8.93;1.93;;;;;;;;;;5001081;28;20880;-70
2021/06/21 10:26:32;;;;;;;5.70;1.77;;;;;;;;;;5011605;28;20453;-70
2021/06/21 10:28:59;;;;;;;5.43;1.70;;;;;;;;;;5011094;28;20456;-70
2021/06/21 10:31:26;;;;;;;8.40;1.63;;;;;;;;;;5009006;28;20431;-70
2021/06/21 10:33:55;;;;;;;9.37;2.17;;;;;;;;;;5008855;28;20971;-71
2021/06/21 10:36:21;;;;;;;7.00;2.60;;;;;;;;;;5008285;28;20454;-70
2021/06/21 10:39:06;;;;;;;8.30;1.97;;;;;;;;;;5012501;28;20797;-70
2021/06/21 10:41:32;;;;;;;6.47;2.40;;;;;;;;;;5016276;28;21077;-70
2021/06/21 10:43:58;;;;;;;10.60;2.03;;;;;;;;;;5006611;28;20430;-70
2021/06/21 10:46:26;;;;;;;4.33;1.80;;;;;;;;;;5011847;28;20427;-71
2021/06/21 10:48:58;;;;;;;7.90;2.93;;;;;;;;;;5032703;22;20536;-73
2021/06/21 10:51:44;;;;;;;4.87;1.47;;;;;;;;;;5010520;28;20445;-73
2021/06/21 10:54:26;;;;;;;3.67;2.03;;;;;;;;;;5008313;28;20410;-71
2021/06/21 10:56:53;;;;;;;10.53;3.40;;;;;;;;;;5011249;28;20455;-71
2021/06/21 10:59:20;;;;;;;3.63;1.90;;;;;;;;;;4983376;28;20440;-71
2021/06/21 11:01:47;;;;;;;6.00;1.50;;;;;;;;;;4996321;28;20432;-73
2021/06/21 11:04:32;;;;;;;5.00;2.10;;;;;;;;;;4992495;28;20412;-72
2021/06/21 11:07:13;;;;;;;6.50;2.83;;;;;;;;;;4987728;28;20420;-72
2021/06/21 11:09:43;;;;;;;3.10;1.50;;;;;;;;;;4989835;28;20475;-73
2021/06/21 11:12:30;;;;;;;5.40;2.07;;;;;;;;;;4989999;28;20436;-72
2021/06/21 11:15:17;;;;;;;5.63;1.93;;;;;;;;;;4975838;28;20447;-71
2021/06/21 11:17:43;;;;;;;8.50;2.70;;;;;;;;;;4991114;28;20569;-71
2021/06/21 11:20:28;;;;;;;8.97;2.40;;;;;;;;;;4988248;28;20521;-73
2021/06/21 11:23:01;;;;;;;12.00;2.23;;;;;;;;;;4991558;28;20424;-72
2021/06/21 11:25:47;;;;;;;7.60;2.30;;;;;;;;;;4975888;28;20428;-72
2021/06/21 11:28:32;;;;;;;6.90;3.77;;;;;;;;;;4981023;28;20408;-72
2021/06/21 11:31:18;;;;;;;5.97;1.97;;;;;;;;;;4989006;28;20424;-72
2021/06/21 11:33:52;;;;;;;8.83;2.60;;;;;;;;;;4973280;28;20548;-72
2021/06/21 11:36:37;;;;;;;10.97;1.93;;;;;;;;;;4986031;28;20492;-73
2021/06/21 11:39:20;;;;;;;8.20;1.77;;;;;;;;;;4989832;28;20432;-72
2021/06/21 11:41:57;;;;;;;6.27;2.93;;;;;;;;;;4990138;28;20420;-72
2021/06/21 11:44:52;;;;;;;10.77;2.37;;;;;;;;;;4992747;28;20419;-72
2021/06/21 11:47:32;;;;;;;8.30;2.00;;;;;;;;;;4979591;28;20527;-72
2021/06/21 11:50:08;;;;;;;6.67;2.33;;;;;;;;;;4991243;28;20823;-72
2021/06/21 11:52:34;;;;;;;10.40;3.23;;;;;;;;;;4990779;28;20416;-72
2021/06/21 11:55:21;;;;;;;7.33;2.10;;;;;;;;;;4991317;28;20412;-72
2021/06/21 11:57:50;;;;;;;6.13;2.07;;;;;;;;;;4976168;28;20494;-72
2021/06/21 12:00:17;;;;;;;7.30;2.63;;;;;;;;;;4972843;28;20452;-72
2021/06/21 12:02:43;;;;;;;8.63;2.30;;;;;;;;;;4991190;28;20427;-73
2021/06/21 12:05:11;;;;;;;7.47;2.00;;;;;;;;;;4992653;28;20419;-73
2021/06/21 12:07:40;;;;;;;8.30;2.33;;;;;;;;;;4989643;28;20419;-72
2021/06/21 12:10:06;;;;;;;8.70;2.23;;;;;;;;;;4992135;28;20487;-72
2021/06/21 12:12:34;;;;;;;2.90;1.70;;;;;;;;;;4984140;28;20460;-72
2021/06/21 12:15:01;;;;;;;5.70;2.10;;;;;;;;;;4992310;28;20524;-72
2021/06/21 12:17:28;;;;;;;5.60;1.90;;;;;;;;;;4990231;28;20424;-72
2021/06/21 12:20:00;;;;;;;5.53;2.10;;;;;;;;;;4998956;28;20450;-72
2021/06/21 12:22:26;;;;;;;5.70;2.87;;;;;;;;;;4981863;28;20756;-73
2021/06/21 12:24:52;;;;;;;7.40;2.07;;;;;;;;;;4992857;28;20780;-74
2021/06/21 12:27:18;;;;;;;3.93;1.70;;;;;;;;;;4970230;28;20443;-73
2021/06/21 12:29:44;;;;;;;7.70;1.90;;;;;;;;;;4993256;28;20961;-73
2021/06/21 12:32:11;;;;;;;11.03;2.00;;;;;;;;;;4992439;28;20998;-73
2021/06/21 12:34:40;;;;;;;8.33;1.97;;;;;;;;;;4993956;28;20427;-73
2021/06/21 12:37:15;;;;;;;7.73;2.27;;;;;;;;;;4976641;28;20983;-72
2021/06/21 12:39:41;;;;;;;6.70;1.90;;;;;;;;;;4994319;28;20440;-72
2021/06/21 12:42:09;;;;;;;6.77;3.10;;;;;;;;;;4992736;28;20437;-71
2021/06/21 12:44:35;;;;;;;8.20;1.90;;;;;;;;;;4992451;28;20416;-72
2021/06/21 12:47:13;;;;;;;10.30;2.33;;;;;;;;;;4993754;28;20424;-72
2021/06/21 12:49:39;;;;;;;3.30;1.83;;;;;;;;;;4976528;28;20456;-72
2021/06/21 12:52:05;;;;;;;6.00;1.83;;;;;;;;;;4992396;28;20432;-72
2021/06/21 12:54:34;;;;;;;4.30;1.90;;;;;;;;;;4977897;28;20475;-73
2021/06/21 12:57:00;;;;;;;6.73;2.03;;;;;;;;;;4992307;28;20487;-71
2021/06/21 12:59:30;;;;;;;7.07;1.70;;;;;;;;;;4992889;28;20437;-72
2021/06/21 13:01:56;;;;;;;8.73;2.40;;;;;;;;;;4990253;28;20940;-72
2021/06/21 13:04:23;;;;;;;6.57;1.97;;;;;;;;;;4994803;28;20435;-72
2021/06/21 13:06:55;;;;;;;7.70;2.33;;;;;;;;;;4994092;28;20864;-72
2021/06/21 13:09:21;;;;;;;8.13;1.97;;;;;;;;;;4994203;28;20988;-72
2021/06/21 13:11:47;;;;;;;4.97;1.80;;;;;;;;;;4988022;28;21222;-72
2021/06/21 13:14:14;;;;;;;6.30;1.87;;;;;;;;;;4993420;28;20432;-72
2021/06/21 13:16:40;;;;;;;5.50;2.77;;;;;;;;;;4989409;28;20508;-72
2021/06/21 13:19:13;;;;;;;6.00;1.97;;;;;;;;;;4994119;28;20511;-71
2021/06/21 13:21:42;;;;;;;12.10;3.10;;;;;;;;;;4991702;28;20537;-70
2021/06/21 13:24:09;;;;;;;4.37;2.27;;;;;;;;;;4992919;28;20499;-69
2021/06/21 13:26:37;;;;;;;4.97;2.30;;;;;;;;;;4995673;28;20753;-70
2021/06/21 13:29:19;;;;;;;12.50;2.43;;;;;;;;;;4990767;28;20452;-70
2021/06/21 13:31:45;;;;;;;6.13;1.73;;;;;;;;;;4993269;28;20511;-69
2021/06/21 13:34:11;;;;;;;5.47;1.73;;;;;;;;;;4990632;28;20456;-69
2021/06/21 13:36:56;;;;;;;6.60;2.00;;;;;;;;;;4986422;28;20471;-69
2021/06/21 13:39:22;;;;;;;7.73;2.63;;;;;;;;;;4992754;28;20440;-69
2021/06/21 13:41:56;;;;;;;5.73;1.80;;;;;;;;;;4991753;28;20436;-70
2021/06/21 13:44:22;;;;;;;4.93;2.70;;;;;;;;;;4993409;28;20792;-68
2021/06/21 13:46:48;;;;;;;5.93;1.63;;;;;;;;;;4989734;28;20467;-69
2021/06/21 13:49:15;;;;;;;6.90;2.03;;;;;;;;;;4984134;28;21004;-70
2021/06/21 13:51:52;;;;;;;13.87;2.40;;;;;;;;;;4968710;28;20412;-68
2021/06/21 13:54:19;;;;;;;6.20;2.07;;;;;;;;;;4993243;28;20443;-69
2021/06/21 13:56:45;;;;;;;5.10;1.90;;;;;;;;;;4991846;28;20456;-70
2021/06/21 13:59:12;;;;;;;10.70;2.23;;;;;;;;;;4993136;28;20429;-70
2021/06/21 14:01:38;;;;;;;5.17;1.83;;;;;;;;;;4992601;28;20416;-68
2021/06/21 14:04:05;;;;;;;8.57;2.07;;;;;;;;;;4975003;28;20417;-68
2021/06/21 14:06:36;;;;;;;5.93;2.17;;;;;;;;;;4992253;28;20951;-69
2021/06/21 14:09:07;;;;;;;4.97;1.93;;;;;;;;;;4990470;28;20455;-67
2021/06/21 14:11:33;;;;;;;7.00;2.60;;;;;;;;;;4974215;28;20821;-68
2021/06/21 14:13:59;;;;;;;8.13;1.77;;;;;;;;;;4992564;28;20434;-68
2021/06/21 14:16:26;;;;;;;5.70;2.07;;;;;;;;;;4992632;28;20487;-67
2021/06/21 14:18:54;;;;;;;8.97;2.13;;;;;;;;;;4992186;28;20543;-68
2021/06/21 14:21:21;;;;;;;8.37;2.90;;;;;;;;;;4990998;28;20425;-69
2021/06/21 14:23:48;;;;;;;12.30;2.70;;;;;;;;;;4991700;28;20531;-68
2021/06/21 14:26:15;;;;;;;6.50;2.33;;;;;;;;;;4988290;28;20559;-70
2021/06/21 14:28:41;;;;;;;7.37;2.70;;;;;;;;;;4989794;28;20539;-68
2021/06/21 14:31:08;;;;;;;4.87;1.70;;;;;;;;;;4988552;28;20424;-68
2021/06/21 14:33:35;;;;;;;9.53;1.83;;;;;;;;;;4995461;28;20428;-70
2021/06/21 14:36:01;;;;;;;11.83;2.30;;;;;;;;;;4990480;28;20463;-69
2021/06/21 14:38:27;;;;;;;6.70;2.40;;;;;;;;;;4992288;28;20456;-67
2021/06/21 14:40:53;;;;;;;13.73;4.43;;;;;;;;;;4991941;28;20427;-67
2021/06/21 14:43:20;;;;;;;5.90;2.00;;;;;;;;;;4987834;28;20455;-72
2021/06/21 14:45:46;;;;;;;6.80;2.57;;;;;;;;;;4990108;28;20550;-70